Time;durP1;ratioP1;P1;durP2;ratioP2;P2;SDS_P1;SDS_P2;PMS_P1;PMS_P2;Temp;Humidity;BMP_temperature;BMP_pressure;BME280_temperature;BME280_humidity;BME280_pressure;Samples;Min_cycle;Max_cycle;Signal;HPM_P1;HPM_P2
2022/10/08 00:00:05;;;;;;;13.93;3.63;;;;;;;-148.88;86.29;75992.53;4975057;28;20531;-72
2022/10/08 00:02:30;;;;;;;9.25;3.70;;;;;;;-148.88;86.90;75988.47;4974355;28;20030;-72
2022/10/08 00:04:56;;;;;;;10.15;3.45;;;;;;;-148.88;86.53;75986.44;4974518;28;20418;-72
2022/10/08 00:07:22;;;;;;;12.75;3.75;;;;;;;-148.88;86.63;75988.47;4974427;28;20031;-73
2022/10/08 00:09:47;;;;;;;13.30;3.47;;;;;;;-148.88;86.84;75984.41;4974974;28;20037;-72
2022/10/08 00:12:12;;;;;;;11.18;4.40;;;;;;;-148.88;86.23;75974.25;4974352;28;20015;-72
2022/10/08 00:14:39;;;;;;;16.30;4.00;;;;;;;-148.88;86.42;75964.09;4974352;28;20026;-72
2022/10/08 00:17:04;;;;;;;13.60;3.65;;;;;;;-148.88;85.88;75960.03;4974586;28;20026;-72
2022/10/08 00:19:30;;;;;;;11.68;3.60;;;;;;;-148.88;86.03;75955.97;4983287;23;20560;-86
2022/10/08 00:21:56;;;;;;;11.77;3.78;;;;;;;-148.88;85.17;75947.84;4973160;28;20023;-87
2022/10/08 00:24:22;;;;;;;13.32;4.22;;;;;;;-148.88;85.79;75960.03;4974946;28;20390;-86
2022/10/08 00:26:49;;;;;;;14.00;3.60;;;;;;;-148.88;86.01;75960.03;4974376;28;20023;-87
2022/10/08 00:29:18;;;;;;;13.85;3.97;;;;;;;-148.88;85.74;75962.06;4972897;28;20022;-86
2022/10/08 00:31:46;;;;;;;8.80;4.18;;;;;;;-148.88;86.23;75968.16;4994404;23;20047;-83
2022/10/08 00:34:24;;;;;;;11.82;3.75;;;;;;;-148.88;86.11;75964.09;4959805;28;20027;-83
2022/10/08 00:36:55;;;;;;;10.65;3.90;;;;;;;-148.88;86.20;75964.09;4964762;29;20027;-83
2022/10/08 00:39:24;;;;;;;17.50;4.30;;;;;;;-148.88;85.94;75955.97;4975271;28;20042;-83
2022/10/08 00:41:56;;;;;;;8.85;3.55;;;;;;;-148.88;85.66;75947.84;4970821;28;20031;-84
2022/10/08 00:44:55;;;;;;;10.48;3.80;;;;;;;-148.88;86.19;75958.00;4964378;28;20042;-84
2022/10/08 00:47:32;;;;;;;9.23;4.15;;;;;;;-148.88;86.89;75972.22;4962984;28;20027;-85
2022/10/08 00:50:03;;;;;;;12.88;4.13;;;;;;;-148.88;86.44;75955.97;4961670;28;20027;-84
2022/10/08 00:52:33;;;;;;;12.70;4.22;;;;;;;-148.88;86.66;75968.16;4957621;28;20035;-83
2022/10/08 00:55:05;;;;;;;13.73;4.15;;;;;;;-148.88;86.64;75968.16;4958165;28;20474;-83
2022/10/08 00:57:33;;;;;;;13.73;3.58;;;;;;;-148.88;86.47;75964.09;4958482;28;20023;-83
2022/10/08 01:00:04;;;;;;;16.60;3.92;;;;;;;-148.88;86.47;75958.00;4959326;28;20058;-85
2022/10/08 01:02:30;;;;;;;11.90;4.32;;;;;;;-148.88;87.35;75974.25;4961129;28;20034;-85
2022/10/08 01:04:58;;;;;;;12.00;3.92;;;;;;;-148.88;86.75;75968.16;4960865;29;20031;-84
2022/10/08 01:07:32;;;;;;;12.85;3.72;;;;;;;-148.88;86.35;75949.88;4962010;28;20031;-86
2022/10/08 01:10:09;;;;;;;15.68;4.75;;;;;;;-148.88;86.91;75974.25;4962136;28;20031;-84
2022/10/08 01:13:06;;;;;;;11.60;3.90;;;;;;;-148.88;87.13;75980.34;4961235;28;20082;-85
2022/10/08 01:16:16;;;;;;;10.95;4.25;;;;;;;-148.88;86.47;75958.00;4961720;28;20023;-85
2022/10/08 01:19:00;;;;;;;14.90;4.40;;;;;;;-148.88;86.61;75964.09;4923165;29;20087;-84
2022/10/08 01:21:50;;;;;;;14.15;5.05;;;;;;;-148.88;86.32;75958.00;4956158;28;20043;-86
2022/10/08 01:27:57;;;;;;;10.35;3.63;;;;;;;-148.88;87.25;75976.28;4957960;29;20039;-84
2022/10/08 01:30:23;;;;;;;16.75;4.20;;;;;;;-148.88;87.23;75984.41;4955531;28;20042;-85
2022/10/08 01:32:55;;;;;;;11.63;4.07;;;;;;;-148.88;87.81;75980.34;4957602;28;20170;-85
2022/10/08 01:35:32;;;;;;;11.63;3.97;;;;;;;-148.88;88.09;76002.69;4958275;28;20089;-85
2022/10/08 01:38:02;;;;;;;9.63;4.25;;;;;;;-148.88;87.93;75998.63;4958533;28;20028;-85
2022/10/08 01:40:33;;;;;;;10.43;4.15;;;;;;;-148.88;88.29;76004.72;4959225;28;20023;-85
2022/10/08 01:43:07;;;;;;;13.05;4.35;;;;;;;-148.88;88.71;76004.72;4958807;28;20046;-85
2022/10/08 01:45:40;;;;;;;12.32;4.00;;;;;;;-148.88;88.95;76008.78;4961244;28;20382;-86
2022/10/08 01:48:14;;;;;;;16.60;4.30;;;;;;;-148.88;88.63;76002.69;4962181;28;20038;-84
2022/10/08 01:51:00;;;;;;;10.82;4.32;;;;;;;-148.88;88.66;75996.59;4962923;28;20438;-86
2022/10/08 01:53:32;;;;;;;13.80;4.35;;;;;;;-148.88;89.82;76010.81;4963890;28;20446;-85
2022/10/08 01:56:01;;;;;;;14.40;4.15;;;;;;;-148.88;89.70;76004.72;4964461;28;20027;-85
2022/10/08 01:58:34;;;;;;;13.02;4.32;;;;;;;-148.88;89.24;76008.78;4964304;28;20027;-85
2022/10/08 02:01:19;;;;;;;13.23;4.45;;;;;;;-148.88;89.25;75992.53;4964397;28;20027;-86
2022/10/08 02:04:31;;;;;;;13.45;4.07;;;;;;;-148.88;89.46;75988.47;4971495;28;20041;-85
2022/10/08 02:06:35;;;;;;;12.07;4.50;;;;;;;-148.88;89.63;75988.47;4978837;28;20019;-85
2022/10/08 02:09:03;;;;;;;13.65;4.72;;;;;;;-148.88;89.09;75994.56;4966846;29;20093;-86
2022/10/08 02:11:28;;;;;;;13.27;4.53;;;;;;;-148.88;89.38;75992.53;4964805;28;20370;-86
2022/10/08 02:13:54;;;;;;;11.25;4.03;;;;;;;-148.88;89.32;75986.44;4965569;28;20027;-86
2022/10/08 02:16:29;;;;;;;11.65;4.03;;;;;;;-148.88;89.21;75992.53;4965576;28;20374;-86
2022/10/08 02:19:06;;;;;;;13.90;4.05;;;;;;;-148.88;89.51;75984.41;4964598;28;20023;-85
2022/10/08 02:21:33;;;;;;;14.23;4.40;;;;;;;-148.88;89.51;75978.31;4963517;28;20050;-85
2022/10/08 02:24:20;;;;;;;12.63;4.60;;;;;;;-148.88;89.62;75984.41;4963537;28;20031;-86
2022/10/08 02:26:52;;;;;;;13.73;4.40;;;;;;;-148.88;89.39;75980.34;4964226;28;20035;-85
2022/10/08 02:29:28;;;;;;;15.32;3.88;;;;;;;-148.88;89.43;75974.25;4963160;28;20027;-85
2022/10/08 02:32:05;;;;;;;10.90;4.15;;;;;;;-148.88;89.58;75964.09;4963323;28;20027;-85
2022/10/08 02:34:38;;;;;;;11.23;4.10;;;;;;;-148.88;89.78;75964.09;4963045;28;20038;-86
2022/10/08 02:37:20;;;;;;;13.73;3.83;;;;;;;-148.88;89.07;75958.00;4961657;28;20038;-86
2022/10/08 02:39:52;;;;;;;12.88;4.20;;;;;;;-148.88;89.27;75953.94;4957410;28;20200;-83
2022/10/08 02:42:21;;;;;;;14.82;4.22;;;;;;;-148.88;89.27;75949.88;4958120;28;20019;-83
2022/10/08 02:45:00;;;;;;;14.93;4.07;;;;;;;-148.88;88.81;75943.78;4960661;28;20037;-84
2022/10/08 02:47:30;;;;;;;12.40;3.72;;;;;;;-148.88;89.12;75951.91;4961745;29;20037;-86
2022/10/08 02:50:01;;;;;;;14.23;4.63;;;;;;;-148.88;88.17;75923.47;4963016;28;20031;-84
2022/10/08 02:52:31;;;;;;;11.63;3.95;;;;;;;-148.88;87.80;75923.47;4961481;28;20115;-84
2022/10/08 02:54:59;;;;;;;13.10;4.50;;;;;;;-148.88;87.66;75923.47;4963174;28;20027;-84
2022/10/08 03:00:58;;;;;;;15.27;4.28;;;;;;;-148.88;89.02;75943.78;4962154;28;20057;-84
2022/10/08 03:03:34;;;;;;;11.30;3.78;;;;;;;-148.88;89.21;75941.75;4961248;28;20034;-85
2022/10/08 03:06:30;;;;;;;13.57;4.50;;;;;;;-148.88;88.90;75945.81;4962657;28;20031;-85
2022/10/08 03:08:58;;;;;;;11.48;4.45;;;;;;;-148.88;89.33;75947.84;4961648;28;20054;-84
2022/10/08 03:11:26;;;;;;;14.35;4.75;;;;;;;-148.88;89.68;75955.97;4961522;28;20141;-85
2022/10/08 03:13:57;;;;;;;11.45;4.50;;;;;;;-148.88;90.20;75955.97;4958345;28;20023;-83
2022/10/08 03:16:36;;;;;;;14.27;4.57;;;;;;;-148.88;89.82;75943.78;4956736;28;20020;-84
2022/10/08 03:19:07;;;;;;;11.52;4.50;;;;;;;-148.88;89.81;75943.78;4959646;28;20106;-84
2022/10/08 03:21:36;;;;;;;14.63;4.50;;;;;;;-148.88;90.77;75955.97;4959750;28;20541;-84
2022/10/08 03:24:01;;;;;;;11.65;4.00;;;;;;;-148.88;90.84;75951.91;4959454;28;20495;-83
2022/10/08 03:26:26;;;;;;;12.98;4.82;;;;;;;-148.88;90.80;75947.84;4960627;28;20098;-85
2022/10/08 03:28:52;;;;;;;17.38;4.80;;;;;;;-148.88;91.07;75953.94;4975579;28;20025;-85
2022/10/08 03:31:21;;;;;;;14.60;4.32;;;;;;;-148.88;91.07;75947.84;4960753;28;20039;-84
2022/10/08 03:33:50;;;;;;;17.60;4.28;;;;;;;-148.88;91.12;75947.84;4961159;28;20034;-84
2022/10/08 03:36:15;;;;;;;17.00;4.65;;;;;;;-148.88;91.04;75951.91;4960022;29;20019;-84
2022/10/08 03:38:41;;;;;;;10.48;4.15;;;;;;;-148.88;91.50;75941.75;4959703;29;20458;-84
2022/10/08 03:41:08;;;;;;;15.52;4.72;;;;;;;-148.88;91.56;75941.75;4959551;28;20134;-83
2022/10/08 03:43:33;;;;;;;11.20;4.30;;;;;;;-148.88;91.75;75947.84;4960185;28;20045;-85
2022/10/08 03:45:59;;;;;;;9.27;4.20;;;;;;;-148.88;91.55;75935.66;4961305;28;20070;-85
2022/10/08 03:48:24;;;;;;;12.20;4.47;;;;;;;-148.88;91.04;75925.50;4959519;28;20034;-84
2022/10/08 03:51:01;;;;;;;12.95;4.55;;;;;;;-148.88;91.19;75935.66;4957200;28;20035;-84
2022/10/08 03:53:30;;;;;;;11.65;4.50;;;;;;;-148.88;91.03;75943.78;4958776;28;20057;-84
2022/10/08 03:56:00;;;;;;;15.48;5.30;;;;;;;-148.88;91.58;75941.75;4959378;28;20038;-85
2022/10/08 03:58:26;;;;;;;16.70;5.15;;;;;;;-148.88;91.04;75943.78;4961503;29;20046;-85
2022/10/08 04:00:57;;;;;;;13.85;4.80;;;;;;;-148.88;90.45;75923.47;4962764;28;20023;-84
2022/10/08 04:03:32;;;;;;;15.48;5.32;;;;;;;-148.88;91.16;75933.63;4961607;29;20039;-85
2022/10/08 04:05:58;;;;;;;14.07;5.18;;;;;;;-148.88;90.70;75931.59;4960935;28;20023;-84
2022/10/08 04:08:25;;;;;;;14.70;5.35;;;;;;;-148.88;90.92;75923.47;4958869;28;20030;-85
2022/10/08 04:10:50;;;;;;;15.77;5.18;;;;;;;-148.88;90.70;75923.47;4959775;28;20151;-84
2022/10/08 04:13:17;;;;;;;14.85;4.95;;;;;;;-148.88;90.75;75923.47;4959559;29;20032;-84
2022/10/08 04:15:43;;;;;;;14.05;5.03;;;;;;;-148.88;90.19;75915.34;4959386;28;20490;-83
2022/10/08 04:18:12;;;;;;;14.77;5.28;;;;;;;-148.88;90.68;75923.47;4959066;28;20023;-85
2022/10/08 04:20:44;;;;;;;16.95;5.63;;;;;;;-148.88;90.92;75923.47;4959625;28;20494;-83
2022/10/08 04:23:10;;;;;;;12.73;5.00;;;;;;;-148.88;91.02;75929.56;4958007;28;20027;-84
2022/10/08 04:25:36;;;;;;;13.95;5.85;;;;;;;-148.88;90.88;75923.47;4955017;28;20063;-84
2022/10/08 04:28:07;;;;;;;14.85;5.07;;;;;;;-148.88;90.94;75925.50;4957900;28;20023;-84
2022/10/08 04:30:33;;;;;;;12.48;5.10;;;;;;;-148.88;91.19;75931.59;4957317;28;20102;-83
2022/10/08 04:33:01;;;;;;;15.07;5.47;;;;;;;-148.88;91.09;75927.53;4957203;28;20401;-83
2022/10/08 04:35:26;;;;;;;11.45;5.22;;;;;;;-148.88;90.97;75925.50;4958784;28;20435;-83
2022/10/08 04:37:52;;;;;;;16.25;5.78;;;;;;;-148.88;91.26;75931.59;4957580;29;20031;-84
2022/10/08 04:40:19;;;;;;;18.10;6.05;;;;;;;-148.88;92.25;75941.75;4958359;29;20053;-85
2022/10/08 04:42:49;;;;;;;13.43;5.90;;;;;;;-148.88;93.42;75947.84;4960722;28;20035;-84
2022/10/08 04:45:18;;;;;;;12.50;5.88;;;;;;;-148.88;94.23;75951.91;4961630;28;20070;-84
2022/10/08 04:47:43;;;;;;;18.90;6.30;;;;;;;-148.88;95.82;75962.06;4961828;28;20121;-84
2022/10/08 04:50:08;;;;;;;15.98;6.88;;;;;;;-148.88;97.34;75980.34;4960276;28;20466;-84
2022/10/08 04:52:34;;;;;;;17.42;7.03;;;;;;;-148.88;98.70;75996.59;4960692;28;20067;-85
2022/10/08 04:54:59;;;;;;;14.55;6.97;;;;;;;-148.88;98.78;75992.53;4960670;28;20537;-84
2022/10/08 04:57:25;;;;;;;17.05;7.15;;;;;;;-148.88;98.54;75992.53;4959746;28;20156;-85
2022/10/08 04:59:55;;;;;;;17.00;7.00;;;;;;;-148.88;99.27;76000.66;4955442;28;20035;-83
2022/10/08 05:02:21;;;;;;;16.08;7.35;;;;;;;-148.88;99.69;75996.59;4956762;28;20034;-85
2022/10/08 05:04:46;;;;;;;16.27;7.80;;;;;;;-148.88;100.00;76004.72;4955814;29;20023;-84
2022/10/08 05:07:12;;;;;;;15.57;7.20;;;;;;;-148.88;100.00;75998.63;4957975;28;20027;-84
2022/10/08 05:09:42;;;;;;;15.93;8.00;;;;;;;-148.88;100.00;75984.41;4957158;29;20041;-83
2022/10/08 05:12:07;;;;;;;13.38;7.38;;;;;;;-148.88;100.00;75986.44;4958679;28;20019;-84
2022/10/08 05:14:32;;;;;;;19.13;8.88;;;;;;;-148.88;100.00;76000.66;4974687;28;20026;-84
2022/10/08 05:16:58;;;;;;;17.90;9.77;;;;;;;-148.88;100.00;75996.59;4959655;28;20031;-84
2022/10/08 05:19:23;;;;;;;19.80;10.80;;;;;;;-148.88;100.00;76008.78;4961207;28;20062;-83
2022/10/08 05:21:48;;;;;;;17.92;10.52;;;;;;;-148.88;100.00;76004.72;4962277;28;20090;-84
2022/10/08 05:24:17;;;;;;;20.52;11.32;;;;;;;-148.88;100.00;76006.75;4964676;28;20090;-85
2022/10/08 05:26:42;;;;;;;16.50;11.93;;;;;;;-148.88;100.00;76025.03;4963021;28;20027;-84
2022/10/08 05:29:10;;;;;;;18.02;12.50;;;;;;;-148.88;100.00;76020.97;4978815;28;20117;-84
2022/10/08 05:31:36;;;;;;;19.98;12.25;;;;;;;-148.88;100.00;76012.84;4964175;28;20031;-84
2022/10/08 05:34:01;;;;;;;22.75;12.65;;;;;;;-148.88;100.00;76023.00;4961833;28;20027;-84
2022/10/08 05:36:33;;;;;;;22.92;12.40;;;;;;;-148.88;100.00;76018.94;4958997;28;20066;-84
2022/10/08 05:39:03;;;;;;;20.95;13.27;;;;;;;-148.88;100.00;76031.13;4957386;29;20034;-84
2022/10/08 05:41:31;;;;;;;24.45;13.55;;;;;;;-148.88;100.00;76033.16;4959010;28;20038;-83
2022/10/08 05:44:01;;;;;;;22.67;12.35;;;;;;;-148.88;100.00;76039.25;4959137;28;20549;-84
2022/10/08 05:46:27;;;;;;;24.95;13.95;;;;;;;-148.88;100.00;76047.38;4957913;28;20075;-84
2022/10/08 05:48:55;;;;;;;18.98;12.75;;;;;;;-148.88;100.00;76045.34;4957920;28;20035;-84
2022/10/08 05:51:21;;;;;;;21.05;13.07;;;;;;;-148.88;100.00;76041.28;4959222;28;20038;-84
2022/10/08 05:53:50;;;;;;;24.50;14.48;;;;;;;-148.88;100.00;76051.44;4958987;28;20495;-84
2022/10/08 05:56:19;;;;;;;21.20;13.57;;;;;;;-148.88;100.00;76045.34;4959231;28;20027;-84
2022/10/08 05:58:45;;;;;;;22.60;14.65;;;;;;;-148.88;100.00;76035.19;4958070;28;20082;-84
2022/10/08 06:01:40;;;;;;;26.85;15.90;;;;;;;-148.88;100.00;76049.41;4958915;28;20038;-84
2022/10/08 06:04:05;;;;;;;26.02;17.77;;;;;;;-148.88;100.00;76049.41;4954082;29;20054;-84
2022/10/08 06:06:31;;;;;;;31.17;19.85;;;;;;;-148.88;100.00;76061.59;4959137;29;20122;-84
2022/10/08 06:08:59;;;;;;;32.45;21.00;;;;;;;-148.88;100.00;76061.59;4958815;28;20606;-83
2022/10/08 06:11:30;;;;;;;30.40;20.50;;;;;;;-148.88;100.00;76069.72;4959165;28;20051;-84
2022/10/08 06:13:57;;;;;;;27.83;20.60;;;;;;;-148.88;100.00;76075.81;4959467;28;20035;-82
2022/10/08 06:16:23;;;;;;;36.95;22.08;;;;;;;-148.88;100.00;76079.88;4958896;28;20393;-84
2022/10/08 06:18:49;;;;;;;31.90;21.83;;;;;;;-148.88;100.00;76073.78;4958465;29;20508;-83
2022/10/08 06:21:21;;;;;;;31.08;21.95;;;;;;;-148.88;100.00;76073.78;4959889;28;20027;-82
2022/10/08 06:23:51;;;;;;;30.90;22.90;;;;;;;-148.88;100.00;76079.88;4959845;28;20027;-83
2022/10/08 06:26:21;;;;;;;30.10;21.73;;;;;;;-148.88;100.00;76079.88;4958416;28;20042;-84
2022/10/08 06:28:47;;;;;;;31.95;22.63;;;;;;;-148.88;100.00;76090.03;4958488;29;20541;-85
2022/10/08 06:31:12;;;;;;;27.95;20.95;;;;;;;-148.88;100.00;76088.00;4958379;28;20039;-83
2022/10/08 06:33:38;;;;;;;32.42;22.85;;;;;;;-148.88;100.00;76094.09;4957898;29;20073;-83
2022/10/08 06:36:05;;;;;;;35.42;22.35;;;;;;;-148.88;100.00;76100.19;4957873;28;20031;-84
2022/10/08 06:38:30;;;;;;;33.35;22.58;;;;;;;-148.88;100.00;76088.00;4959351;28;20418;-84
2022/10/08 06:41:00;;;;;;;34.78;23.77;;;;;;;-148.88;100.00;76092.06;4958772;28;20054;-85
2022/10/08 06:43:29;;;;;;;32.85;22.02;;;;;;;-148.88;100.00;76085.97;4958685;28;20035;-85
2022/10/08 06:45:59;;;;;;;33.40;23.40;;;;;;;-148.88;100.00;76100.19;4960134;28;20034;-84
2022/10/08 06:48:26;;;;;;;42.33;23.70;;;;;;;-148.88;100.00;76094.09;4962379;28;20457;-85
2022/10/08 06:51:07;;;;;;;29.70;22.45;;;;;;;-148.88;100.00;76090.03;4959607;28;20034;-84
2022/10/08 06:53:33;;;;;;;32.50;22.77;;;;;;;-148.88;100.00;76094.09;4959202;28;20106;-85
2022/10/08 06:56:01;;;;;;;35.58;22.48;;;;;;;-148.88;100.00;76081.91;4960153;28;20031;-85
2022/10/08 06:58:27;;;;;;;35.72;23.27;;;;;;;-148.88;100.00;76092.06;4960278;28;20023;-85
2022/10/08 07:01:25;;;;;;;36.85;23.45;;;;;;;-148.88;100.00;76102.22;4958918;28;20090;-85
2022/10/08 07:03:55;;;;;;;35.33;23.55;;;;;;;-148.88;100.00;76094.09;4941674;29;20047;-84
2022/10/08 07:06:30;;;;;;;38.47;24.20;;;;;;;-148.88;100.00;76104.25;4958250;28;20122;-84
2022/10/08 07:08:57;;;;;;;34.65;23.33;;;;;;;-148.88;100.00;76096.13;4958469;29;20095;-83
2022/10/08 07:11:24;;;;;;;34.15;22.13;;;;;;;-148.88;100.00;76098.16;4959534;28;20035;-83
2022/10/08 07:13:49;;;;;;;31.83;22.45;;;;;;;-148.88;100.00;76102.22;4958523;29;20061;-84
2022/10/08 07:16:23;;;;;;;37.30;22.77;;;;;;;-148.88;100.00;76108.31;4960118;28;20019;-84
2022/10/08 07:18:50;;;;;;;36.75;22.15;;;;;;;-148.88;100.00;76108.31;4959654;28;20518;-84
2022/10/08 07:21:21;;;;;;;35.70;23.23;;;;;;;-148.88;100.00;76102.22;4957875;28;20102;-83
2022/10/08 07:23:46;;;;;;;37.25;21.73;;;;;;;-148.88;100.00;76098.16;4958999;28;20027;-84
2022/10/08 07:26:17;;;;;;;32.58;22.48;;;;;;;-148.88;100.00;76092.06;4959044;29;20023;-84
2022/10/08 07:28:49;;;;;;;29.92;20.88;;;;;;;-148.88;100.00;76090.03;4959719;29;20039;-84
2022/10/08 07:31:22;;;;;;;31.95;21.52;;;;;;;-148.88;100.00;76092.06;4958972;28;20034;-84
2022/10/08 07:33:51;;;;;;;29.73;20.55;;;;;;;-148.88;100.00;76096.13;4959749;29;20434;-83
2022/10/08 07:36:22;;;;;;;32.35;20.15;;;;;;;-148.88;100.00;76090.03;4957930;29;20494;-84
2022/10/08 07:38:53;;;;;;;29.60;19.35;;;;;;;-148.88;100.00;76079.88;4959575;28;20516;-83
2022/10/08 07:41:18;;;;;;;28.30;18.27;;;;;;;-148.88;100.00;76083.94;4958661;28;20070;-84
2022/10/08 07:43:43;;;;;;;29.30;19.15;;;;;;;-148.88;100.00;76077.84;4958720;28;20031;-84
2022/10/08 07:46:10;;;;;;;25.10;17.17;;;;;;;-148.88;100.00;76081.91;4960530;28;20023;-84
2022/10/08 07:48:36;;;;;;;26.55;16.50;;;;;;;-148.88;100.00;76077.84;4960471;28;20034;-85
2022/10/08 07:51:27;;;;;;;27.17;16.45;;;;;;;-148.88;100.00;76073.78;4958792;28;20521;-82
2022/10/08 07:53:52;;;;;;;24.73;15.07;;;;;;;-148.88;100.00;76065.66;4959512;28;20035;-85
2022/10/08 07:56:20;;;;;;;22.63;14.82;;;;;;;-148.88;100.00;76065.66;4956566;28;20111;-84
2022/10/08 07:58:48;;;;;;;18.98;13.75;;;;;;;-148.88;100.00;76061.59;4959002;28;20027;-82
2022/10/08 08:01:28;;;;;;;19.70;13.30;;;;;;;-148.88;100.00;76057.53;4959017;28;20478;-85
2022/10/08 08:03:58;;;;;;;20.40;12.63;;;;;;;-148.88;100.00;76053.47;4959855;28;20050;-84
2022/10/08 08:06:24;;;;;;;18.08;12.30;;;;;;;-148.88;100.00;76061.59;4959070;28;20030;-84
2022/10/08 08:08:52;;;;;;;23.23;13.57;;;;;;;-148.88;100.00;76045.34;4958741;28;20478;-85
2022/10/08 08:11:22;;;;;;;18.95;12.60;;;;;;;-148.88;100.00;76043.31;4959168;28;20027;-84
2022/10/08 08:13:48;;;;;;;19.05;12.25;;;;;;;-148.88;100.00;76037.22;4960900;28;20430;-85
2022/10/08 08:16:19;;;;;;;19.40;12.43;;;;;;;-148.88;100.00;76049.41;4958595;28;20031;-84
2022/10/08 08:18:57;;;;;;;20.15;12.93;;;;;;;-148.88;100.00;76045.34;4959443;28;20478;-84
2022/10/08 08:21:29;;;;;;;17.95;12.00;;;;;;;-148.88;100.00;76045.34;4959984;28;20023;-84
2022/10/08 08:23:56;;;;;;;19.48;12.02;;;;;;;-148.88;100.00;76051.44;4960223;28;20086;-85
2022/10/08 08:26:25;;;;;;;18.98;13.23;;;;;;;-148.88;100.00;76049.41;4959516;28;20027;-84
2022/10/08 08:28:55;;;;;;;22.27;11.93;;;;;;;-148.88;100.00;76045.34;4960188;28;20039;-84
2022/10/08 08:31:25;;;;;;;18.10;12.10;;;;;;;-148.88;100.00;76049.41;4955478;28;20106;-85
2022/10/08 08:33:56;;;;;;;18.17;12.15;;;;;;;-148.88;100.00;76045.34;4956381;29;20066;-84
2022/10/08 08:36:30;;;;;;;19.10;12.55;;;;;;;-148.88;100.00;76035.19;4957261;28;20126;-84
2022/10/08 08:39:02;;;;;;;18.73;12.32;;;;;;;-148.88;100.00;76012.84;4959557;29;20098;-84
2022/10/08 08:41:52;;;;;;;16.63;10.68;;;;;;;-148.88;100.00;76004.72;4960779;28;20034;-85
2022/10/08 08:44:20;;;;;;;18.55;11.85;;;;;;;-148.88;100.00;75998.63;4963321;29;20031;-84
2022/10/08 08:46:53;;;;;;;18.88;11.43;;;;;;;-148.88;100.00;75990.50;4962623;28;20023;-83
2022/10/08 08:49:35;;;;;;;19.27;10.95;;;;;;;-148.88;99.76;75992.53;4961532;29;20030;-85
2022/10/08 08:52:02;;;;;;;19.65;10.73;;;;;;;-148.88;98.46;75980.34;4960979;28;20122;-84
2022/10/08 08:54:28;;;;;;;22.60;11.20;;;;;;;-148.88;97.90;75964.09;4960875;28;20035;-85
2022/10/08 08:57:10;;;;;;;17.17;9.95;;;;;;;-148.88;96.65;75960.03;4965300;28;20023;-84
2022/10/08 08:59:44;;;;;;;18.38;9.90;;;;;;;-148.88;95.38;75964.09;4965296;28;20041;-83
2022/10/08 09:02:27;;;;;;;16.35;9.20;;;;;;;-148.88;95.10;75972.22;4966633;28;20023;-85
2022/10/08 09:05:15;;;;;;;16.85;9.18;;;;;;;-148.88;94.28;75964.09;4964040;28;20493;-84
2022/10/08 09:07:50;;;;;;;14.20;8.27;;;;;;;-148.88;94.41;75943.78;4961205;28;20174;-84
2022/10/08 09:10:30;;;;;;;17.30;8.77;;;;;;;-148.88;93.82;75943.78;4964084;28;20031;-84
2022/10/08 09:12:59;;;;;;;16.27;8.60;;;;;;;-148.88;93.63;75939.72;4964508;28;20075;-83
2022/10/08 09:15:39;;;;;;;12.95;7.35;;;;;;;-148.88;92.48;75927.53;4964789;29;20405;-85
2022/10/08 09:18:12;;;;;;;13.77;7.22;;;;;;;-148.88;91.66;75929.56;4965601;28;20035;-85
2022/10/08 09:20:38;;;;;;;16.35;7.63;;;;;;;-148.88;91.25;75927.53;4963512;28;20023;-84
2022/10/08 09:23:12;;;;;;;12.57;6.60;;;;;;;-148.88;91.26;75935.66;4964775;28;20043;-84
2022/10/08 09:25:40;;;;;;;14.15;7.20;;;;;;;-148.88;91.69;75915.34;4963546;29;20023;-84
2022/10/08 09:28:10;;;;;;;15.48;7.13;;;;;;;-148.88;91.27;75874.72;4962716;29;20043;-84
2022/10/08 09:30:43;;;;;;;13.23;6.50;;;;;;;-148.88;89.44;75862.53;4964181;28;20027;-84
2022/10/08 09:33:11;;;;;;;15.57;5.27;;;;;;;-148.88;88.86;75858.47;4962956;29;20051;-83
2022/10/08 09:35:52;;;;;;;9.35;5.30;;;;;;;-148.88;88.16;75832.06;4963040;29;20331;-84
2022/10/08 09:38:29;;;;;;;14.60;5.40;;;;;;;-148.88;85.16;75825.97;4963047;29;20528;-85
2022/10/08 09:41:15;;;;;;;13.32;4.85;;;;;;;-148.88;84.85;75809.72;4959247;28;20082;-82
2022/10/08 09:43:44;;;;;;;15.50;4.90;;;;;;;-148.88;84.32;75813.78;4960720;28;20023;-84
2022/10/08 09:46:31;;;;;;;11.63;4.43;;;;;;;-148.88;83.18;75793.47;4961915;28;20057;-84
2022/10/08 09:49:32;;;;;;;11.20;4.18;;;;;;;-148.88;83.52;75803.63;4974303;29;20023;-84
2022/10/08 09:52:06;;;;;;;10.88;4.60;;;;;;;-148.88;82.25;75799.56;4980294;28;20005;-80
2022/10/08 09:54:40;;;;;;;11.23;3.75;;;;;;;-148.88;80.51;75830.03;4977422;28;20026;-83
2022/10/08 09:57:06;;;;;;;8.45;3.92;;;;;;;-148.88;81.30;75852.38;4977221;28;20015;-82
2022/10/08 09:59:46;;;;;;;7.90;3.45;;;;;;;-148.88;81.76;75858.47;4974421;28;20055;-83
2022/10/08 10:02:33;;;;;;;9.82;4.10;;;;;;;-148.88;82.66;75846.28;4969497;28;20031;-82
2022/10/08 10:05:06;;;;;;;8.15;3.53;;;;;;;-148.88;81.60;75799.56;4970102;28;20483;-84
2022/10/08 10:07:43;;;;;;;10.80;4.37;;;;;;;-148.88;80.84;75767.06;4969395;28;20023;-83
2022/10/08 10:10:17;;;;;;;8.70;3.60;;;;;;;-148.88;79.75;75773.16;4967545;28;20253;-82
2022/10/08 10:12:47;;;;;;;8.95;3.75;;;;;;;-148.88;79.71;75758.94;4969047;28;20023;-83
2022/10/08 10:15:20;;;;;;;14.13;4.85;;;;;;;-148.88;80.11;75791.44;4965103;29;20039;-81
2022/10/08 10:17:51;;;;;;;;;;;;;;;-148.88;80.69;75793.47;4963164;28;20465;-80
2022/10/08 10:20:26;;;;;;;8.85;3.35;;;;;;;-148.88;79.56;75809.72;4963710;28;20388;-82
2022/10/08 10:23:00;;;;;;;10.32;3.17;;;;;;;-148.88;79.24;75825.97;4963210;28;20524;-80
2022/10/08 10:25:34;;;;;;;9.30;3.42;;;;;;;-148.88;79.32;75838.16;4964961;29;20061;-81
2022/10/08 10:28:16;;;;;;;8.00;3.20;;;;;;;-148.88;80.23;75870.66;4964753;28;20059;-82
2022/10/08 10:31:09;;;;;;;7.80;3.17;;;;;;;-148.88;79.19;75890.97;4966657;28;20498;-81
2022/10/08 10:33:50;;;;;;;8.50;3.40;;;;;;;-148.88;80.93;75870.66;4965922;29;20019;-80
2022/10/08 10:36:17;;;;;;;8.32;3.83;;;;;;;-148.88;80.33;75846.28;4966879;29;20027;-82
2022/10/08 10:39:09;;;;;;;8.18;3.35;;;;;;;-148.88;80.88;75842.22;4965679;28;20034;-84
2022/10/08 10:41:44;;;;;;;6.85;3.15;;;;;;;-148.88;79.95;75813.78;4968358;28;20023;-83
2022/10/08 10:44:12;;;;;;;6.40;3.00;;;;;;;-148.88;79.15;75830.03;4970395;28;20051;-82
2022/10/08 10:46:51;;;;;;;6.75;3.47;;;;;;;-148.88;80.71;75838.16;4967031;29;20023;-85
2022/10/08 10:49:21;;;;;;;9.85;2.90;;;;;;;-148.88;79.45;75882.84;4966446;28;20023;-83
2022/10/08 10:52:14;;;;;;;6.63;2.50;;;;;;;-148.88;78.30;75886.91;4959734;28;20371;-84
2022/10/08 10:55:16;;;;;;;6.57;2.55;;;;;;;-148.88;78.32;75888.94;4963346;28;20027;-83
2022/10/08 10:57:45;;;;;;;9.07;2.90;;;;;;;-148.88;80.29;75919.41;4977741;28;20426;-81
2022/10/08 11:00:25;;;;;;;8.18;2.60;;;;;;;-148.88;80.53;75897.06;4964970;28;20482;-84
2022/10/08 11:03:15;;;;;;;6.00;2.63;;;;;;;-148.88;79.56;75854.41;4965988;28;20082;-83
2022/10/08 11:05:44;;;;;;;7.45;2.58;;;;;;;-148.88;74.51;75838.16;4966600;28;20030;-83
2022/10/08 11:08:38;;;;;;;5.95;2.00;;;;;;;-148.88;73.91;75821.91;4966418;29;20027;-82
2022/10/08 11:11:15;;;;;;;6.55;2.30;;;;;;;-148.88;73.34;75793.47;4966322;28;20031;-85
2022/10/08 11:14:08;;;;;;;6.70;2.22;;;;;;;-148.88;72.75;75807.69;4965006;29;20038;-85
2022/10/08 11:16:55;;;;;;;8.55;2.55;;;;;;;-148.88;70.50;75834.09;4965343;28;20031;-85
2022/10/08 11:19:40;;;;;;;7.97;2.40;;;;;;;-148.88;70.17;75842.22;4965500;28;20483;-83
2022/10/08 11:22:33;;;;;;;6.97;2.20;;;;;;;-148.88;70.06;75840.19;4965008;28;20019;-85
2022/10/08 11:25:14;;;;;;;4.82;1.63;;;;;;;-148.88;69.51;75850.34;4963271;29;20031;-83
2022/10/08 11:28:00;;;;;;;6.57;1.80;;;;;;;-148.88;68.31;75862.53;4959329;28;20035;-84
2022/10/08 11:30:55;;;;;;;6.82;2.00;;;;;;;-148.88;68.87;75789.41;4961812;29;20031;-83
2022/10/08 11:33:21;;;;;;;4.75;1.90;;;;;;;-148.88;67.69;75722.38;4964753;28;20463;-85